Time;durP1;ratioP1;P1;durP2;ratioP2;P2;SDS_P1;SDS_P2;PMS_P1;PMS_P2;Temp;Humidity;BMP_temperature;BMP_pressure;BME280_temperature;BME280_humidity;BME280_pressure;Samples;Min_cycle;Max_cycle;Signal;HPM_P1;HPM_P2
2024/05/08 00:01:00;;;;;;;11.80;7.88;;;20.80;64.60;;;;;;6585395;43;110679;-72
2024/05/08 00:06:06;;;;;;;11.35;7.53;;;20.80;64.70;;;;;;6585947;43;111418;-72
2024/05/08 00:11:11;;;;;;;13.68;7.68;;;20.80;64.90;;;;;;6585675;43;111150;-72
2024/05/08 00:16:19;;;;;;;12.05;8.27;;;20.80;64.80;;;;;;6586846;43;111190;-72
2024/05/08 00:21:24;;;;;;;11.55;7.60;;;20.80;64.80;;;;;;6593251;43;112888;-73
2024/05/08 00:26:30;;;;;;;10.68;7.20;;;20.80;64.80;;;;;;6583459;43;110456;-73
2024/05/08 00:31:38;;;;;;;11.27;6.95;;;20.80;64.70;;;;;;6585345;43;110212;-75
2024/05/08 00:36:44;;;;;;;10.65;7.22;;;20.80;64.90;;;;;;6584569;43;110524;-75
2024/05/08 00:41:49;;;;;;;12.18;7.30;;;20.80;64.80;;;;;;6587990;43;110389;-75
2024/05/08 00:46:57;;;;;;;10.63;6.75;;;20.80;64.80;;;;;;6585688;43;110652;-72
2024/05/08 00:52:03;;;;;;;12.00;6.90;;;20.80;64.90;;;;;;6585209;43;110777;-76
2024/05/08 00:57:08;;;;;;;11.50;6.90;;;20.80;65.00;;;;;;6586086;43;110300;-73
2024/05/08 01:02:16;;;;;;;11.45;7.00;;;20.80;65.00;;;;;;6589608;43;111056;-72
2024/05/08 01:07:23;;;;;;;11.45;7.00;;;20.80;65.00;;;;;;6585537;43;112987;-72
2024/05/08 01:12:28;;;;;;;10.65;6.78;;;20.80;65.00;;;;;;6585659;43;114528;-79
2024/05/08 01:17:36;;;;;;;9.75;6.55;;;20.70;65.00;;;;;;6591476;43;116212;-80
2024/05/08 01:22:45;;;;;;;11.18;6.50;;;20.70;65.00;;;;;;6587011;43;114475;-76
2024/05/08 01:27:50;;;;;;;9.85;6.60;;;20.70;65.00;;;;;;6584627;43;114039;-72
2024/05/08 01:32:55;;;;;;;10.23;6.85;;;20.70;65.20;;;;;;6584865;43;114077;-73
2024/05/08 01:38:07;;;;;;;9.57;6.43;;;20.70;65.00;;;;;;6584691;43;115498;-77
2024/05/08 01:43:12;;;;;;;9.57;6.53;;;20.70;65.20;;;;;;6584400;43;117258;-73
2024/05/08 01:48:17;;;;;;;9.40;6.60;;;20.70;65.10;;;;;;6590457;43;117604;-72
2024/05/08 01:53:25;;;;;;;9.75;6.35;;;20.70;65.20;;;;;;6584360;43;110638;-71
2024/05/08 01:58:31;;;;;;;10.93;6.93;;;20.70;65.20;;;;;;6584048;43;111147;-77
2024/05/08 02:03:36;;;;;;;10.23;6.82;;;20.70;65.10;;;;;;6585915;43;110209;-72
2024/05/08 02:08:44;;;;;;;11.93;7.13;;;20.70;65.00;;;;;;6588760;43;110493;-74
2024/05/08 02:13:49;;;;;;;;;;;20.70;65.00;;;;;;6584993;43;110459;-73
2024/05/08 02:18:54;;;;;;;10.75;6.85;;;20.70;65.10;;;;;;6584359;43;110490;-74
2024/05/08 02:24:02;;;;;;;10.65;6.70;;;20.70;65.20;;;;;;6584747;43;110194;-77
2024/05/08 02:29:07;;;;;;;;;;;20.70;65.10;;;;;;6593271;43;113491;-76
2024/05/08 02:34:12;;;;;;;9.93;6.38;;;20.70;65.10;;;;;;6587300;43;112223;-74
2024/05/08 02:39:20;;;;;;;11.63;7.32;;;20.70;65.20;;;;;;6586566;43;111230;-74
2024/05/08 02:44:26;;;;;;;;;;;20.60;65.10;;;;;;6591156;43;112758;-73
2024/05/08 02:49:31;;;;;;;10.18;6.20;;;20.70;65.10;;;;;;6594926;43;113203;-77
2024/05/08 02:54:39;;;;;;;8.48;5.93;;;20.60;65.10;;;;;;6585840;43;114972;-72
2024/05/08 02:59:47;;;;;;;;;;;20.60;65.10;;;;;;6596040;43;117307;-74
2024/05/08 03:04:52;;;;;;;9.73;6.10;;;20.60;65.10;;;;;;6586893;43;112902;-70
2024/05/08 03:10:00;;;;;;;9.32;6.30;;;20.60;65.10;;;;;;6594159;43;117894;-75
2024/05/08 03:15:06;;;;;;;;;;;20.60;65.10;;;;;;6590556;43;114569;-73
2024/05/08 03:20:11;;;;;;;9.30;5.90;;;20.60;65.20;;;;;;6587703;43;115723;-74
2024/05/08 03:25:27;;;;;;;9.70;5.82;;;20.60;65.20;;;;;;6589042;43;115332;-73
2024/05/08 03:30:33;;;;;;;9.50;6.00;;;20.60;65.10;;;;;;6590169;43;117417;-74
2024/05/08 03:35:41;;;;;;;8.80;5.72;;;20.60;65.00;;;;;;6587968;43;115479;-75
2024/05/08 03:40:49;;;;;;;10.55;5.70;;;20.60;64.90;;;;;;6586795;43;110358;-76
2024/05/08 03:45:54;;;;;;;8.63;5.60;;;20.60;64.70;;;;;;6585433;43;110432;-76
2024/05/08 03:50:59;;;;;;;8.85;5.88;;;20.60;64.70;;;;;;6586775;43;110369;-80
2024/05/08 03:56:10;;;;;;;10.18;5.90;;;20.60;64.50;;;;;;6588519;43;112218;-79
2024/05/08 04:01:15;;;;;;;9.45;5.70;;;20.60;64.40;;;;;;6585831;43;110236;-79
2024/05/08 04:06:20;;;;;;;8.88;6.00;;;20.60;64.20;;;;;;6587108;43;110614;-80
2024/05/08 04:11:28;;;;;;;8.18;4.85;;;20.60;64.20;;;;;;6593609;43;113037;-79
2024/05/08 04:16:33;;;;;;;8.60;5.40;;;20.50;64.20;;;;;;6540247;43;112415;-82
2024/05/08 04:25:32;;;;;;;9.20;5.30;;;20.50;63.50;;;;;;6690763;37;111532;-76
2024/05/08 04:35:58;;;;;;;8.20;4.78;;;20.50;63.60;;;;;;6804170;41;1254814;-80
2024/05/08 04:41:04;;;;;;;8.48;4.80;;;20.50;64.00;;;;;;6766501;41;110322;-78
2024/05/08 04:46:10;;;;;;;7.38;4.30;;;20.50;63.90;;;;;;6765014;42;110773;-72
2024/05/08 04:51:18;;;;;;;6.95;4.45;;;20.50;63.90;;;;;;6770762;42;111370;-74
2024/05/08 04:56:23;;;;;;;;;;;20.60;63.90;;;;;;6772846;42;112229;-73
2024/05/08 05:01:28;;;;;;;7.40;4.30;;;20.50;64.00;;;;;;6765305;42;111690;-73
2024/05/08 05:06:37;;;;;;;6.45;4.20;;;20.50;63.90;;;;;;6767699;42;110295;-75
2024/05/08 05:11:42;;;;;;;;;;;20.50;63.90;;;;;;6766090;41;110539;-74
2024/05/08 05:16:48;;;;;;;6.55;3.97;;;20.50;63.90;;;;;;6766780;42;111398;-81
2024/05/08 05:21:56;;;;;;;6.80;3.50;;;20.50;63.90;;;;;;6765059;42;112889;-80
2024/05/08 05:27:01;;;;;;;;;;;20.50;64.00;;;;;;6763093;42;113897;-80
2024/05/08 05:37:30;;;;;;;5.65;3.35;;;20.50;64.00;;;;;;6766511;42;114586;-74
2024/05/08 05:47:57;;;;;;;6.68;3.35;;;20.50;63.90;;;;;;6754883;42;113631;-77
2024/05/08 05:53:09;;;;;;;6.10;3.58;;;20.50;63.90;;;;;;6759410;42;115115;-73
2024/05/08 05:58:16;;;;;;;6.43;3.60;;;20.50;63.90;;;;;;6759481;42;116507;-73
2024/05/08 06:03:21;;;;;;;5.03;3.13;;;20.50;63.90;;;;;;6762554;42;117306;-72
2024/05/08 06:08:29;;;;;;;6.18;3.58;;;20.50;63.90;;;;;;6751954;42;110951;-78
2024/05/08 06:13:34;;;;;;;6.15;3.42;;;20.50;63.90;;;;;;6758052;42;112699;-74
2024/05/08 06:18:40;;;;;;;5.47;3.40;;;20.50;63.90;;;;;;6751079;42;110814;-73
2024/05/08 06:23:53;;;;;;;6.35;3.58;;;20.50;64.00;;;;;;6763256;42;112761;-81
2024/05/08 06:28:58;;;;;;;5.78;3.65;;;20.50;63.90;;;;;;6753977;42;111061;-81
2024/05/08 06:34:03;;;;;;;6.03;3.35;;;20.50;64.00;;;;;;6756489;42;112213;-81
2024/05/08 06:39:12;;;;;;;6.75;3.60;;;20.50;63.90;;;;;;6751136;42;110751;-77
2024/05/08 06:44:17;;;;;;;7.47;4.03;;;20.50;63.90;;;;;;6751272;42;110132;-75
2024/05/08 06:49:22;;;;;;;7.63;3.75;;;20.50;63.90;;;;;;6751116;42;110458;-78
2024/05/08 06:54:30;;;;;;;7.90;4.30;;;20.50;63.90;;;;;;6751246;42;111050;-81
2024/05/08 06:59:35;;;;;;;8.00;3.80;;;20.50;63.90;;;;;;6722443;42;111340;-82
2024/05/08 07:04:41;;;;;;;6.28;3.75;;;20.50;64.00;;;;;;6699403;42;110757;-78
2024/05/08 07:09:49;;;;;;;6.50;4.07;;;20.50;63.90;;;;;;6704287;42;117912;-80
2024/05/08 07:14:54;;;;;;;;;;;20.50;63.70;;;;;;6697459;42;114590;-73
2024/05/08 07:19:59;;;;;;;8.32;4.13;;;20.50;63.70;;;;;;6696754;42;113521;-73
2024/05/08 07:25:08;;;;;;;6.88;3.90;;;20.50;63.80;;;;;;6710413;42;117230;-76
2024/05/08 07:30:14;;;;;;;6.47;3.78;;;20.50;63.70;;;;;;6706680;42;113510;-73
2024/05/08 07:35:32;;;;;;;7.55;3.67;;;20.50;63.80;;;;;;6695707;42;115078;-73
2024/05/08 07:40:40;;;;;;;6.03;3.92;;;20.50;63.80;;;;;;6702183;42;116668;-77
2024/05/08 07:45:45;;;;;;;6.28;3.67;;;20.50;63.70;;;;;;6702828;42;117959;-74
2024/05/08 07:50:51;;;;;;;6.45;3.60;;;20.50;63.60;;;;;;6697421;42;114393;-74
2024/05/08 07:55:58;;;;;;;8.40;4.30;;;20.50;63.60;;;;;;6695106;42;111022;-74
2024/05/08 08:01:04;;;;;;;7.85;4.05;;;20.50;63.60;;;;;;6694815;42;110517;-73
2024/05/08 08:06:09;;;;;;;6.13;3.50;;;20.50;63.40;;;;;;6696137;42;110884;-72
2024/05/08 08:11:17;;;;;;;6.28;3.70;;;20.50;63.40;;;;;;6704897;42;113086;-75
2024/05/08 08:16:22;;;;;;;6.25;3.92;;;20.50;63.50;;;;;;6699809;42;111836;-77
2024/05/08 08:21:28;;;;;;;6.03;3.80;;;20.50;63.60;;;;;;6695815;42;110759;-74
2024/05/08 08:26:36;;;;;;;7.82;3.65;;;20.50;63.60;;;;;;6703385;42;111691;-78
2024/05/08 08:31:41;;;;;;;6.68;3.53;;;20.50;63.70;;;;;;6694386;42;110671;-71
2024/05/08 08:36:46;;;;;;;6.38;3.50;;;20.50;63.60;;;;;;6700301;42;110950;-73
2024/05/08 08:41:57;;;;;;;5.63;3.25;;;20.50;63.70;;;;;;6694347;42;112133;-75
2024/05/08 08:47:07;;;;;;;6.22;3.40;;;20.50;63.80;;;;;;6694362;42;110266;-79
2024/05/08 08:52:15;;;;;;;5.20;2.97;;;20.50;63.80;;;;;;6695823;42;110491;-71
2024/05/08 08:57:23;;;;;;;6.80;2.90;;;20.50;63.90;;;;;;6697217;42;110785;-74
2024/05/08 09:02:35;;;;;;;6.50;3.20;;;20.50;63.70;;;;;;6694209;42;114195;-74
2024/05/08 09:14:55;;;;;;;5.57;2.78;;;20.50;63.90;;;;;;6695036;42;112959;-77
2024/05/08 09:20:00;;;;;;;5.68;2.70;;;20.50;63.80;;;;;;6696618;42;114527;-76
2024/05/08 09:25:06;;;;;;;4.55;2.50;;;20.50;63.90;;;;;;6699137;42;115020;-72
2024/05/08 09:30:25;;;;;;;5.32;2.58;;;20.50;63.90;;;;;;6698647;42;114590;-74
2024/05/08 09:35:42;;;;;;;4.78;2.50;;;20.50;63.80;;;;;;6694845;42;114734;-73
2024/05/08 09:40:48;;;;;;;6.22;2.33;;;20.50;63.70;;;;;;6697261;42;114529;-74
2024/05/08 09:45:58;;;;;;;5.50;2.50;;;20.50;63.60;;;;;;6696518;42;111173;-71
2024/05/08 09:51:05;;;;;;;5.72;2.35;;;20.50;63.60;;;;;;6705399;42;113068;-73
2024/05/08 09:56:16;;;;;;;4.72;1.98;;;20.50;63.60;;;;;;6696070;42;110913;-69
2024/05/08 10:01:26;;;;;;;4.45;2.00;;;20.50;63.60;;;;;;6696272;42;110652;-72
2024/05/08 10:06:46;;;;;;;5.07;2.10;;;20.50;63.60;;;;;;6700809;42;110963;-76
2024/05/08 10:12:01;;;;;;;5.30;2.20;;;20.50;63.60;;;;;;6705021;42;112835;-70
2024/05/08 10:17:16;;;;;;;4.75;2.22;;;20.50;63.60;;;;;;6699296;42;110307;-76
2024/05/08 10:22:27;;;;;;;5.28;2.15;;;20.50;63.60;;;;;;6742576;42;110342;-76
2024/05/08 10:27:36;;;;;;;6.35;2.17;;;20.50;63.60;;;;;;6762090;42;113317;-73
2024/05/08 10:32:45;;;;;;;4.88;2.28;;;20.50;63.60;;;;;;6750887;42;111171;-72
2024/05/08 10:37:50;;;;;;;5.38;2.15;;;20.50;63.30;;;;;;6760241;42;112798;-78
2024/05/08 10:42:56;;;;;;;5.82;2.22;;;20.50;63.40;;;;;;6754202;42;111295;-71
2024/05/08 10:48:09;;;;;;;5.00;2.28;;;20.50;63.30;;;;;;6754300;42;111113;-75
2024/05/08 10:53:15;;;;;;;4.50;2.43;;;20.50;63.40;;;;;;6761660;42;115750;-72
2024/05/08 10:58:21;;;;;;;4.55;2.30;;;20.50;63.50;;;;;;6750839;42;114707;-72
2024/05/08 11:03:29;;;;;;;4.10;1.90;;;20.50;63.40;;;;;;6750148;42;114350;-74
2024/05/08 11:08:35;;;;;;;5.40;2.00;;;20.50;63.40;;;;;;6749195;42;114257;-75
2024/05/08 11:13:40;;;;;;;5.22;2.10;;;20.60;63.50;;;;;;6749017;42;116438;-79
2024/05/08 11:18:48;;;;;;;4.60;2.20;;;20.60;63.50;;;;;;6759128;42;114114;-74
2024/05/08 11:23:53;;;;;;;4.05;2.20;;;20.60;63.50;;;;;;6750223;42;114305;-72
2024/05/08 11:28:58;;;;;;;5.18;2.20;;;20.60;63.40;;;;;;6755220;42;117694;-78
2024/05/08 11:34:06;;;;;;;4.97;2.20;;;20.50;63.40;;;;;;6751293;42;114218;-80
2024/05/08 11:39:12;;;;;;;4.88;1.92;;;20.60;63.40;;;;;;6749500;42;111079;-78
2024/05/08 11:44:17;;;;;;;4.43;2.05;;;20.60;63.30;;;;;;6749995;42;110431;-75
2024/05/08 11:49:25;;;;;;;4.68;2.25;;;20.60;63.20;;;;;;6700299;42;110374;-81
2024/05/08 11:54:31;;;;;;;5.15;1.98;;;20.60;63.10;;;;;;6695237;42;111466;-72
2024/05/08 11:59:36;;;;;;;4.55;2.10;;;20.60;63.10;;;;;;6693467;42;110983;-79
2024/05/08 12:04:44;;;;;;;6.50;2.33;;;20.60;63.10;;;;;;6695340;42;110480;-78
2024/05/08 12:09:53;;;;;;;4.38;1.90;;;20.60;62.90;;;;;;6741075;42;111014;-80
2024/05/08 12:14:58;;;;;;;4.15;2.00;;;20.60;62.80;;;;;;6760296;42;112410;-80
2024/05/08 12:20:08;;;;;;;5.03;2.20;;;20.60;62.80;;;;;;6748310;42;110183;-79
2024/05/08 12:25:25;;;;;;;4.20;2.00;;;20.60;62.60;;;;;;6692589;42;110407;-77
2024/05/08 12:30:30;;;;;;;5.72;1.90;;;20.60;62.60;;;;;;6735803;42;112141;-79
2024/05/08 12:35:49;;;;;;;4.32;1.77;;;20.60;62.60;;;;;;6750069;42;110717;-77
2024/05/08 12:40:54;;;;;;;4.13;1.88;;;20.60;62.60;;;;;;6748973;42;114146;-77
2024/05/08 12:46:00;;;;;;;3.35;1.80;;;20.60;62.40;;;;;;6748423;42;114691;-79
2024/05/08 12:51:08;;;;;;;4.63;2.05;;;20.60;62.40;;;;;;6748946;42;113346;-81
2024/05/08 12:56:13;;;;;;;4.25;2.00;;;20.60;62.20;;;;;;6749908;42;114572;-79
2024/05/08 13:01:19;;;;;;;5.13;1.90;;;20.60;62.00;;;;;;6753005;42;114577;-75
2024/05/08 13:06:27;;;;;;;5.07;2.00;;;20.60;62.00;;;;;;6750674;42;114185;-72
2024/05/08 13:11:32;;;;;;;4.07;1.77;;;20.60;61.90;;;;;;6751491;42;115177;-71
2024/05/08 13:16:37;;;;;;;3.72;1.90;;;20.60;61.90;;;;;;6759043;42;115921;-71
2024/05/08 13:21:45;;;;;;;3.90;1.80;;;20.60;61.70;;;;;;6751515;42;115081;-72
2024/05/08 13:26:50;;;;;;;;;;;20.60;61.70;;;;;;6758186;42;112518;-73
2024/05/08 13:31:56;;;;;;;4.40;1.75;;;20.60;61.80;;;;;;6754617;42;112001;-71
2024/05/08 13:37:04;;;;;;;3.55;1.73;;;20.60;61.90;;;;;;6751025;42;110952;-71
2024/05/08 13:42:09;;;;;;;4.32;1.83;;;20.50;62.00;;;;;;6758982;42;112440;-72
2024/05/08 13:47:15;;;;;;;4.30;1.83;;;20.60;62.00;;;;;;6750152;42;111125;-72
2024/05/08 13:52:23;;;;;;;3.88;1.90;;;20.60;61.90;;;;;;6748626;42;110828;-70
2024/05/08 13:57:28;;;;;;;6.35;2.22;;;20.60;61.90;;;;;;6747575;42;110675;-71
2024/05/08 14:02:33;;;;;;;4.43;2.10;;;20.60;61.90;;;;;;6752651;42;110851;-72
2024/05/08 14:07:41;;;;;;;4.30;1.90;;;20.60;61.80;;;;;;6758461;42;112514;-72
2024/05/08 14:12:46;;;;;;;4.05;1.70;;;20.60;61.90;;;;;;6754846;42;112091;-75
2024/05/08 14:17:51;;;;;;;4.13;1.63;;;20.60;61.90;;;;;;6748115;42;110491;-73
2024/05/08 14:23:00;;;;;;;5.10;2.15;;;20.60;62.00;;;;;;6749322;42;110710;-72
2024/05/08 14:28:06;;;;;;;3.30;1.63;;;20.60;61.90;;;;;;6752621;42;110577;-72
2024/05/08 14:33:12;;;;;;;4.25;1.80;;;20.60;62.70;;;;;;6751010;42;114213;-72
2024/05/08 14:38:20;;;;;;;4.82;2.10;;;20.60;61.90;;;;;;6757959;42;116881;-72
2024/05/08 14:43:25;;;;;;;5.82;2.30;;;20.60;61.90;;;;;;6755078;42;116781;-71
2024/05/08 14:48:31;;;;;;;6.15;1.98;;;20.60;62.00;;;;;;6751568;42;113443;-71
2024/05/08 14:53:42;;;;;;;3.67;1.80;;;20.60;62.10;;;;;;6749290;42;113978;-73
2024/05/08 14:58:47;;;;;;;4.30;1.90;;;20.60;62.20;;;;;;6749348;42;115048;-76
2024/05/08 15:03:53;;;;;;;4.47;1.95;;;20.60;62.10;;;;;;6748148;42;114503;-80
2024/05/08 15:09:01;;;;;;;6.18;2.20;;;20.60;62.20;;;;;;6751097;42;115051;-78
2024/05/08 15:14:06;;;;;;;4.95;2.10;;;20.60;62.20;;;;;;6749830;42;110431;-75
2024/05/08 15:19:11;;;;;;;3.83;2.10;;;20.50;62.20;;;;;;6757194;42;114074;-74
2024/05/08 15:24:20;;;;;;;4.53;2.07;;;20.50;62.10;;;;;;6749351;42;111034;-75
2024/05/08 15:29:25;;;;;;;;;;;20.60;62.40;;;;;;6749695;42;110664;-72
2024/05/08 15:34:30;;;;;;;6.72;2.20;;;20.50;62.40;;;;;;6752864;42;111135;-76
2024/05/08 15:39:38;;;;;;;5.38;2.20;;;20.50;62.50;;;;;;6754165;42;112004;-71
2024/05/08 15:44:43;;;;;;;;;;;20.50;62.70;;;;;;6751589;42;110374;-73
2024/05/08 15:49:49;;;;;;;5.28;2.30;;;20.50;62.70;;;;;;6744919;42;110506;-71
2024/05/08 15:54:57;;;;;;;5.57;2.45;;;20.50;62.90;;;;;;6695836;42;110275;-72
2024/05/08 16:00:02;;;;;;;;;;;20.50;62.90;;;;;;6722839;42;110866;-70
2024/05/08 16:05:11;;;;;;;6.35;2.97;;;20.50;63.00;;;;;;6698245;42;110413;-71
2024/05/08 16:10:19;;;;;;;5.43;2.70;;;20.50;63.10;;;;;;6699592;42;112822;-73
2024/05/08 16:15:42;;;;;;;5.10;2.90;;;20.50;63.00;;;;;;6695024;42;110258;-69
2024/05/08 16:20:47;;;;;;;6.28;2.88;;;20.50;63.10;;;;;;6702899;42;113537;-72
2024/05/08 16:25:56;;;;;;;5.45;2.83;;;20.50;63.20;;;;;;6693159;42;112840;-70
2024/05/08 16:31:01;;;;;;;6.30;3.30;;;20.50;63.20;;;;;;6694528;42;115710;-72
2024/05/08 16:36:11;;;;;;;5.85;3.25;;;20.50;63.20;;;;;;6714870;42;113874;-74
2024/05/08 16:41:19;;;;;;;6.15;3.60;;;20.50;63.30;;;;;;6692355;42;113827;-77
2024/05/08 16:46:24;;;;;;;5.97;3.60;;;20.50;63.20;;;;;;6693111;42;114363;-71
2024/05/08 16:51:29;;;;;;;7.38;3.80;;;20.50;63.20;;;;;;6698585;42;117118;-71
2024/05/08 16:56:37;;;;;;;6.50;3.70;;;20.50;63.30;;;;;;6691436;42;114070;-71
2024/05/08 17:01:45;;;;;;;6.35;3.80;;;20.50;63.20;;;;;;6696689;42;114073;-72
2024/05/08 17:06:51;;;;;;;6.93;3.72;;;20.50;63.40;;;;;;6710162;42;110659;-70
2024/05/08 17:11:59;;;;;;;7.10;3.70;;;20.40;63.40;;;;;;6692319;42;110829;-71
2024/05/08 17:17:05;;;;;;;6.97;3.60;;;20.50;63.60;;;;;;6693463;42;110213;-72
2024/05/08 17:22:11;;;;;;;5.80;3.40;;;20.50;63.80;;;;;;6694205;42;112220;-72
2024/05/08 17:27:19;;;;;;;6.32;3.92;;;20.50;63.80;;;;;;6697013;42;112133;-70
2024/05/08 17:32:26;;;;;;;;;;;20.40;63.90;;;;;;6693849;42;110329;-72
2024/05/08 17:37:32;;;;;;;8.13;3.70;;;20.40;63.90;;;;;;6702512;42;112912;-72
2024/05/08 17:42:41;;;;;;;6.35;3.70;;;20.40;63.90;;;;;;6697155;42;110498;-69
2024/05/08 17:47:46;;;;;;;7.32;3.78;;;20.40;64.10;;;;;;6695162;42;111743;-72
2024/05/08 17:52:51;;;;;;;6.30;3.90;;;20.40;64.10;;;;;;6700766;42;112316;-73
2024/05/08 17:58:01;;;;;;;6.53;3.85;;;20.40;64.10;;;;;;6693858;42;110392;-72
2024/05/08 18:03:12;;;;;;;7.03;3.88;;;20.40;64.10;;;;;;6697151;42;110663;-73
2024/05/08 18:08:20;;;;;;;6.35;3.63;;;20.40;64.20;;;;;;6701213;42;115452;-70
2024/05/08 18:13:28;;;;;;;6.85;4.05;;;20.40;64.30;;;;;;6695781;42;115164;-75
2024/05/08 18:18:34;;;;;;;7.22;3.70;;;20.40;64.30;;;;;;6703360;42;115651;-71
2024/05/08 18:23:39;;;;;;;7.03;3.80;;;20.40;64.30;;;;;;6695932;42;114725;-72
2024/05/08 18:28:47;;;;;;;6.45;3.53;;;20.40;64.50;;;;;;6694754;42;115278;-78
2024/05/08 18:33:53;;;;;;;5.97;3.58;;;20.40;64.50;;;;;;6694012;42;115426;-76
2024/05/08 18:38:58;;;;;;;6.43;3.45;;;20.40;64.50;;;;;;6695224;42;115016;-78
2024/05/08 18:44:07;;;;;;;6.10;3.75;;;20.40;64.60;;;;;;6696343;42;115984;-75
2024/05/08 18:49:12;;;;;;;7.07;3.60;;;20.40;64.70;;;;;;6696367;42;115545;-76
2024/05/08 18:54:18;;;;;;;8.02;4.00;;;20.40;64.80;;;;;;6693588;42;110803;-78
2024/05/08 18:59:25;;;;;;;7.90;3.33;;;20.40;64.80;;;;;;6694307;42;110248;-78
2024/05/08 19:04:31;;;;;;;7.72;3.80;;;20.40;64.80;;;;;;6694267;42;110262;-73
2024/05/08 19:09:41;;;;;;;8.33;3.53;;;20.40;64.80;;;;;;6696866;42;111188;-78
2024/05/08 19:14:49;;;;;;;6.25;3.30;;;20.40;64.80;;;;;;6693667;42;110730;-71
2024/05/08 19:19:55;;;;;;;6.32;3.20;;;20.40;64.90;;;;;;6694027;42;110544;-76
2024/05/08 19:25:00;;;;;;;7.57;3.30;;;20.40;65.00;;;;;;6694391;42;110232;-75
2024/05/08 19:30:10;;;;;;;7.55;3.70;;;20.40;65.10;;;;;;6697964;42;111875;-71
2024/05/08 19:35:17;;;;;;;6.85;3.45;;;20.40;65.00;;;;;;6695808;42;111358;-74
2024/05/08 19:40:24;;;;;;;6.03;3.47;;;20.30;64.90;;;;;;6693176;42;110641;-71
2024/05/08 19:45:44;;;;;;;7.85;3.58;;;20.30;65.10;;;;;;6702946;42;113599;-71
2024/05/08 19:50:50;;;;;;;6.47;3.50;;;20.40;65.20;;;;;;6693322;42;110395;-70
2024/05/08 19:55:57;;;;;;;7.90;3.40;;;20.30;65.10;;;;;;6698403;42;110783;-72
2024/05/08 20:01:06;;;;;;;6.68;3.60;;;20.30;65.20;;;;;;6695231;42;113813;-70
2024/05/08 20:06:12;;;;;;;7.30;3.53;;;20.30;65.20;;;;;;6694636;42;114150;-71
2024/05/08 20:11:17;;;;;;;7.22;3.70;;;20.30;65.30;;;;;;6694150;42;114638;-72
2024/05/08 20:16:25;;;;;;;6.00;3.15;;;20.30;65.30;;;;;;6703739;42;116203;-71
2024/05/08 20:21:30;;;;;;;6.82;3.42;;;20.30;65.30;;;;;;6704031;42;117490;-72
2024/05/08 20:26:36;;;;;;;6.18;3.42;;;20.30;65.40;;;;;;6694615;42;115057;-72
2024/05/08 20:31:43;;;;;;;7.50;3.53;;;20.30;65.40;;;;;;6693273;42;113660;-72
2024/05/08 20:36:51;;;;;;;6.57;3.35;;;20.30;65.30;;;;;;6695017;42;114951;-70
2024/05/08 20:41:56;;;;;;;6.03;3.33;;;20.30;65.30;;;;;;6695543;42;111147;-71
2024/05/08 20:47:05;;;;;;;6.43;3.33;;;20.30;65.20;;;;;;6696228;42;110470;-72
2024/05/08 20:52:10;;;;;;;6.15;3.17;;;20.30;65.20;;;;;;6692883;42;111021;-71
2024/05/08 20:57:16;;;;;;;5.25;2.97;;;20.30;65.10;;;;;;6693028;42;110930;-72
2024/05/08 21:02:23;;;;;;;6.30;3.40;;;20.30;65.00;;;;;;6695809;42;110554;-71
2024/05/08 21:07:29;;;;;;;5.60;3.03;;;20.30;64.90;;;;;;6692900;42;110478;-72
2024/05/08 21:12:34;;;;;;;6.57;3.30;;;20.30;64.80;;;;;;6693572;42;112066;-78
2024/05/08 21:17:42;;;;;;;6.15;3.17;;;20.30;64.80;;;;;;6702790;42;112239;-72
2024/05/08 21:22:47;;;;;;;7.65;3.30;;;20.30;64.60;;;;;;6699673;42;112289;-72
2024/05/08 21:27:53;;;;;;;6.63;3.40;;;20.30;64.40;;;;;;6695618;42;110631;-71
2024/05/08 21:33:00;;;;;;;6.40;3.00;;;20.20;64.30;;;;;;6695451;42;110480;-73
2024/05/08 21:38:07;;;;;;;5.82;3.13;;;20.20;64.20;;;;;;6696382;42;111789;-76
2024/05/08 21:43:13;;;;;;;5.30;2.78;;;20.20;63.90;;;;;;6703779;42;111462;-74
2024/05/08 21:48:20;;;;;;;6.25;2.80;;;20.20;63.90;;;;;;6750414;42;116188;-81
2024/05/08 21:53:26;;;;;;;7.25;3.00;;;20.20;63.70;;;;;;6751224;42;114100;-74
2024/05/08 21:58:31;;;;;;;5.57;2.88;;;20.20;63.60;;;;;;6752801;42;115409;-79
2024/05/08 22:03:39;;;;;;;7.03;2.65;;;20.20;63.50;;;;;;6756643;42;116558;-77
2024/05/08 22:08:45;;;;;;;5.45;2.80;;;20.20;63.20;;;;;;6753986;42;116490;-80
2024/05/08 22:13:50;;;;;;;5.07;2.50;;;20.10;63.10;;;;;;6749988;42;114431;-80
2024/05/08 22:18:58;;;;;;;6.38;2.88;;;20.20;63.00;;;;;;6759508;42;116578;-76
2024/05/08 22:24:03;;;;;;;5.43;2.55;;;20.20;62.90;;;;;;6756757;42;116418;-75
2024/05/08 22:29:09;;;;;;;5.38;2.58;;;20.10;62.60;;;;;;6752763;42;114988;-73
2024/05/08 22:34:16;;;;;;;5.35;2.50;;;20.10;62.50;;;;;;6751506;42;111109;-79
2024/05/08 22:39:22;;;;;;;5.97;2.58;;;20.10;62.40;;;;;;6750533;42;110565;-75
2024/05/08 22:44:27;;;;;;;4.20;2.33;;;20.10;62.40;;;;;;6751233;42;110850;-80
2024/05/08 22:49:35;;;;;;;4.68;2.30;;;20.10;62.10;;;;;;6759517;42;112608;-76
2024/05/08 22:54:41;;;;;;;4.80;2.10;;;20.10;62.00;;;;;;6750262;42;112020;-75
2024/05/08 22:59:46;;;;;;;4.55;2.20;;;20.10;62.00;;;;;;6750075;42;111108;-81
2024/05/08 23:04:54;;;;;;;4.85;2.30;;;20.00;61.80;;;;;;6760422;42;112908;-79
2024/05/08 23:09:59;;;;;;;4.25;2.08;;;20.10;61.70;;;;;;6757408;42;110983;-77
2024/05/08 23:15:05;;;;;;;3.90;2.05;;;20.10;61.60;;;;;;6752038;42;111320;-74
2024/05/08 23:20:13;;;;;;;4.90;2.35;;;20.00;61.50;;;;;;6755339;42;111523;-80
2024/05/08 23:25:30;;;;;;;5.20;2.40;;;20.00;61.40;;;;;;6751923;42;110792;-79
2024/05/08 23:30:36;;;;;;;4.38;2.05;;;20.00;61.20;;;;;;6755297;42;110301;-79
2024/05/08 23:35:59;;;;;;;4.20;2.03;;;20.00;61.30;;;;;;6752142;42;114835;-80
2024/05/08 23:41:04;;;;;;;;;;;20.00;61.20;;;;;;6751486;42;114735;-81
2024/05/08 23:46:09;;;;;;;4.57;2.17;;;20.00;61.10;;;;;;6751800;42;115042;-79
2024/05/08 23:51:17;;;;;;;4.40;2.22;;;20.00;60.90;;;;;;6751272;42;112518;-77
2024/05/08 23:56:22;;;;;;;;;;;20.00;60.90;;;;;;6763451;42;115065;-81
